createdAt,value
2023-03-22T00:01:53.830Z,65.25
2023-03-22T00:06:55.476Z,64.86
2023-03-22T00:11:57.097Z,65.13
2023-03-22T00:16:58.825Z,65.33
2023-03-22T00:22:01.263Z,65.77
2023-03-22T00:27:03.649Z,65.02
2023-03-22T00:32:05.504Z,64.82
2023-03-22T00:37:08.196Z,65.36
2023-03-22T00:42:10.606Z,65.12
2023-03-22T00:47:12.433Z,66.25
2023-03-22T00:52:14.337Z,67.56
2023-03-22T00:57:16.312Z,66.22
2023-03-22T01:02:18.006Z,65.89
2023-03-22T01:07:21.633Z,64.84
2023-03-22T01:12:23.491Z,64.52
2023-03-22T01:17:25.147Z,64.79
2023-03-22T01:22:26.891Z,66.15
2023-03-22T01:27:28.602Z,65.04
2023-03-22T01:32:30.368Z,66.43
2023-03-22T01:37:32.784Z,67.03
2023-03-22T01:42:34.467Z,66.44
2023-03-22T01:47:36.503Z,65.84
2023-03-22T01:52:38.860Z,66.76
2023-03-22T01:57:42.707Z,66.20
2023-03-22T02:02:48.404Z,66.73
2023-03-22T02:07:50.976Z,66.03
2023-03-22T02:13:02.107Z,66.57
2023-03-22T02:18:29.211Z,65.78
2023-03-22T02:23:59.726Z,66.82
2023-03-22T02:29:16.212Z,66.35
2023-03-22T02:34:36.402Z,66.38
2023-03-22T02:39:50.028Z,65.24
2023-03-22T02:45:13.500Z,65.32
2023-03-22T02:50:18.292Z,66.87
2023-03-22T02:55:19.942Z,67.26
2023-03-22T03:00:21.809Z,66.37
2023-03-22T03:05:44.987Z,66.26
2023-03-22T03:10:47.934Z,66.79
2023-03-22T03:15:54.261Z,66.84
2023-03-22T03:21:02.815Z,68.30
2023-03-22T03:26:30.828Z,67.18
2023-03-22T03:31:52.042Z,66.47
2023-03-22T03:36:58.553Z,66.93
2023-03-22T03:42:01.946Z,67.15
2023-03-22T03:47:05.581Z,66.76
2023-03-22T03:52:07.211Z,66.29
2023-03-22T03:57:08.893Z,67.03
2023-03-22T04:02:10.775Z,67.05
2023-03-22T04:07:12.504Z,66.59
2023-03-22T04:12:14.164Z,67.04
2023-03-22T04:17:15.836Z,67.20
2023-03-22T04:22:18.522Z,67.02
2023-03-22T04:27:21.697Z,66.80
2023-03-22T04:32:23.769Z,66.24
2023-03-22T04:37:27.169Z,67.24
2023-03-22T04:42:28.921Z,67.05
2023-03-22T04:47:30.589Z,68.64
2023-03-22T04:52:32.335Z,67.49
2023-03-22T04:57:35.316Z,69.10
2023-03-22T05:02:41.479Z,68.44
2023-03-22T05:07:43.346Z,67.71
2023-03-22T05:12:45.084Z,67.95
2023-03-22T05:17:46.721Z,68.09
2023-03-22T05:22:50.747Z,67.83
2023-03-22T05:27:54.360Z,66.76
2023-03-22T05:33:00.623Z,67.16
2023-03-22T05:38:02.392Z,67.54
2023-03-22T05:43:04.081Z,68.38
2023-03-22T05:48:06.774Z,67.12
2023-03-22T05:53:08.668Z,68.61
2023-03-22T05:58:10.979Z,68.53
2023-03-22T06:03:13.086Z,68.27
2023-03-22T06:08:15.748Z,68.27
2023-03-22T06:13:18.582Z,69.33
2023-03-22T06:18:20.261Z,68.91
2023-03-22T06:23:21.963Z,68.92
2023-03-22T06:28:23.655Z,68.66
2023-03-22T06:33:25.480Z,67.83
2023-03-22T06:38:27.100Z,68.40
2023-03-22T06:43:28.830Z,68.99
2023-03-22T06:48:30.725Z,69.09
2023-03-22T06:53:32.345Z,68.90
2023-03-22T06:58:34.123Z,68.36
2023-03-22T07:03:35.964Z,68.50
2023-03-22T07:08:37.865Z,69.53
2023-03-22T07:13:39.836Z,70.23
2023-03-22T07:18:41.497Z,69.33
2023-03-22T07:23:43.219Z,69.28
2023-03-22T07:28:44.952Z,69.29
2023-03-22T07:33:46.574Z,68.67
2023-03-22T07:38:48.247Z,70.00
2023-03-22T07:43:56.670Z,68.75
2023-03-22T07:49:01.827Z,68.26
2023-03-22T07:54:04.460Z,67.79
2023-03-22T07:59:07.451Z,70.25
2023-03-22T08:04:09.456Z,76.73
2023-03-22T08:09:11.719Z,71.43
2023-03-22T08:14:13.369Z,69.90
2023-03-22T08:19:15.068Z,69.33
2023-03-22T08:24:16.744Z,68.76
2023-03-22T08:29:18.853Z,68.36
2023-03-22T08:34:20.962Z,86.02
2023-03-22T08:39:23.410Z,81.54
2023-03-22T08:44:26.249Z,74.97
2023-03-22T08:49:28.189Z,78.54
2023-03-22T08:54:33.712Z,79.48
2023-03-22T08:59:35.819Z,79.20
2023-03-22T09:04:37.478Z,69.64
2023-03-22T09:09:39.119Z,74.96
2023-03-22T09:14:40.776Z,69.92
2023-03-22T09:19:42.425Z,67.55
2023-03-22T09:24:44.320Z,67.36
2023-03-22T09:29:46.081Z,76.71
2023-03-22T09:34:48.299Z,72.99
2023-03-22T09:39:50.042Z,75.91
2023-03-22T09:44:52.738Z,66.67
2023-03-22T09:50:15.803Z,62.06
2023-03-22T09:55:19.425Z,61.78
2023-03-22T10:00:31.578Z,64.21
2023-03-22T10:05:39.217Z,62.68
2023-03-22T10:10:44.404Z,62.32
2023-03-22T10:15:52.312Z,58.33
2023-03-22T10:20:59.324Z,59.25
2023-03-22T10:26:03.656Z,57.66
2023-03-22T10:31:06.788Z,59.09
2023-03-22T10:36:14.022Z,59.39
2023-03-22T10:41:21.330Z,69.68
2023-03-22T10:46:27.313Z,56.85
2023-03-22T10:51:37.393Z,61.47
2023-03-22T10:56:39.040Z,60.42
2023-03-22T11:01:46.221Z,56.13
2023-03-22T11:06:55.595Z,56.46
2023-03-22T11:12:00.037Z,51.92
2023-03-22T11:17:10.220Z,54.79
2023-03-22T11:22:33.372Z,54.66
2023-03-22T11:27:36.554Z,55.17
2023-03-22T11:32:39.699Z,51.13
2023-03-22T11:37:47.002Z,54.62
2023-03-22T11:42:53.246Z,50.95
2023-03-22T11:48:01.658Z,52.03
2023-03-22T11:53:06.718Z,51.44
2023-03-22T11:58:08.386Z,52.64
2023-03-22T12:03:24.347Z,51.75
2023-03-22T12:08:36.198Z,50.95
2023-03-22T12:13:37.769Z,50.01
2023-03-22T12:18:50.658Z,51.07
2023-03-22T12:23:57.722Z,49.97
2023-03-22T12:29:04.090Z,50.09
2023-03-22T12:34:15.538Z,45.70
2023-03-22T12:39:28.772Z,43.75
2023-03-22T12:44:39.316Z,46.14
2023-03-22T12:49:55.020Z,44.13
2023-03-22T12:54:59.355Z,44.93
2023-03-22T13:00:13.739Z,41.61
2023-03-22T13:05:17.962Z,45.43
2023-03-22T13:10:36.332Z,46.22
2023-03-22T13:15:42.641Z,45.91
2023-03-22T13:21:04.277Z,42.30
2023-03-22T13:26:06.655Z,40.39
2023-03-22T13:31:36.147Z,43.15
2023-03-22T13:36:38.171Z,39.47
2023-03-22T13:41:40.124Z,41.50
2023-03-22T13:46:42.248Z,41.33
2023-03-22T13:51:45.288Z,40.95
2023-03-22T13:56:57.327Z,39.99
2023-03-22T14:02:22.424Z,40.03
2023-03-22T14:07:40.192Z,40.32
2023-03-22T14:12:53.839Z,41.87
2023-03-22T14:18:17.026Z,42.31
